sensor_id;sensor_type;location;lat;lon;timestamp;P1;durP1;ratioP1;P2;durP2;ratioP2
20956;SDS011;10637;47.970;7.830;2024-03-22T00:01:23;13.20;;;5.40;;
20956;SDS011;10637;47.970;7.830;2024-03-22T00:06:24;15.90;;;6.73;;
20956;SDS011;10637;47.970;7.830;2024-03-22T00:11:25;15.87;;;6.30;;
20956;SDS011;10637;47.970;7.830;2024-03-22T00:16:26;13.47;;;5.77;;
20956;SDS011;10637;47.970;7.830;2024-03-22T00:21:26;13.50;;;5.73;;
20956;SDS011;10637;47.970;7.830;2024-03-22T00:26:28;14.53;;;6.10;;
20956;SDS011;10637;47.970;7.830;2024-03-22T00:31:29;11.03;;;5.10;;
20956;SDS011;10637;47.970;7.830;2024-03-22T00:36:30;12.50;;;5.20;;
20956;SDS011;10637;47.970;7.830;2024-03-22T00:41:31;11.30;;;5.50;;
20956;SDS011;10637;47.970;7.830;2024-03-22T00:46:31;14.37;;;6.10;;
20956;SDS011;10637;47.970;7.830;2024-03-22T00:51:32;16.00;;;6.60;;
20956;SDS011;10637;47.970;7.830;2024-03-22T00:56:33;16.83;;;6.83;;
20956;SDS011;10637;47.970;7.830;2024-03-22T01:01:34;14.47;;;6.17;;
20956;SDS011;10637;47.970;7.830;2024-03-22T01:06:34;17.70;;;6.97;;
20956;SDS011;10637;47.970;7.830;2024-03-22T01:11:35;13.73;;;6.40;;
20956;SDS011;10637;47.970;7.830;2024-03-22T01:16:36;18.17;;;6.40;;
20956;SDS011;10637;47.970;7.830;2024-03-22T01:21:37;17.60;;;6.83;;
20956;SDS011;10637;47.970;7.830;2024-03-22T01:26:37;17.70;;;5.90;;
20956;SDS011;10637;47.970;7.830;2024-03-22T01:31:38;19.43;;;7.83;;
20956;SDS011;10637;47.970;7.830;2024-03-22T01:36:39;15.77;;;7.03;;
20956;SDS011;10637;47.970;7.830;2024-03-22T01:41:40;15.30;;;6.77;;
20956;SDS011;10637;47.970;7.830;2024-03-22T01:46:41;19.07;;;7.80;;
20956;SDS011;10637;47.970;7.830;2024-03-22T01:51:42;16.70;;;7.50;;
20956;SDS011;10637;47.970;7.830;2024-03-22T01:56:43;18.20;;;8.50;;
20956;SDS011;10637;47.970;7.830;2024-03-22T02:01:44;19.43;;;8.37;;
20956;SDS011;10637;47.970;7.830;2024-03-22T02:06:45;17.93;;;8.90;;
20956;SDS011;10637;47.970;7.830;2024-03-22T02:11:46;18.90;;;8.63;;
20956;SDS011;10637;47.970;7.830;2024-03-22T02:16:47;17.17;;;7.80;;
20956;SDS011;10637;47.970;7.830;2024-03-22T02:21:48;18.23;;;8.13;;
20956;SDS011;10637;47.970;7.830;2024-03-22T02:26:49;15.27;;;7.53;;
20956;SDS011;10637;47.970;7.830;2024-03-22T02:31:49;14.23;;;7.00;;
20956;SDS011;10637;47.970;7.830;2024-03-22T02:36:50;16.97;;;7.93;;
20956;SDS011;10637;47.970;7.830;2024-03-22T02:41:51;17.90;;;8.80;;
20956;SDS011;10637;47.970;7.830;2024-03-22T02:46:52;19.53;;;7.87;;
20956;SDS011;10637;47.970;7.830;2024-03-22T02:51:52;21.20;;;8.60;;
20956;SDS011;10637;47.970;7.830;2024-03-22T02:56:53;21.87;;;8.70;;
20956;SDS011;10637;47.970;7.830;2024-03-22T03:01:54;15.27;;;7.77;;
20956;SDS011;10637;47.970;7.830;2024-03-22T03:06:55;16.83;;;8.10;;
20956;SDS011;10637;47.970;7.830;2024-03-22T03:11:56;17.57;;;8.10;;
20956;SDS011;10637;47.970;7.830;2024-03-22T03:16:56;17.07;;;8.03;;
20956;SDS011;10637;47.970;7.830;2024-03-22T03:21:57;16.37;;;7.83;;
20956;SDS011;10637;47.970;7.830;2024-03-22T03:26:58;18.03;;;7.30;;
20956;SDS011;10637;47.970;7.830;2024-03-22T03:31:59;21.83;;;7.53;;
20956;SDS011;10637;47.970;7.830;2024-03-22T03:37:00;18.53;;;7.23;;
20956;SDS011;10637;47.970;7.830;2024-03-22T03:42:01;14.63;;;6.93;;
20956;SDS011;10637;47.970;7.830;2024-03-22T03:47:02;15.20;;;7.00;;
20956;SDS011;10637;47.970;7.830;2024-03-22T03:52:03;16.33;;;6.90;;
20956;SDS011;10637;47.970;7.830;2024-03-22T03:57:04;17.13;;;6.83;;
20956;SDS011;10637;47.970;7.830;2024-03-22T04:02:05;21.50;;;8.10;;
20956;SDS011;10637;47.970;7.830;2024-03-22T04:07:06;15.93;;;8.00;;
20956;SDS011;10637;47.970;7.830;2024-03-22T04:12:07;16.87;;;6.70;;
20956;SDS011;10637;47.970;7.830;2024-03-22T04:17:07;14.87;;;6.97;;
20956;SDS011;10637;47.970;7.830;2024-03-22T04:22:08;15.60;;;6.60;;
20956;SDS011;10637;47.970;7.830;2024-03-22T04:27:09;17.73;;;6.93;;
20956;SDS011;10637;47.970;7.830;2024-03-22T04:32:10;15.83;;;7.27;;
20956;SDS011;10637;47.970;7.830;2024-03-22T04:37:11;15.63;;;6.70;;
20956;SDS011;10637;47.970;7.830;2024-03-22T04:42:11;12.77;;;6.13;;
20956;SDS011;10637;47.970;7.830;2024-03-22T04:47:13;15.97;;;6.20;;
20956;SDS011;10637;47.970;7.830;2024-03-22T04:52:13;18.70;;;6.80;;
20956;SDS011;10637;47.970;7.830;2024-03-22T04:57:14;16.97;;;5.87;;
20956;SDS011;10637;47.970;7.830;2024-03-22T05:02:15;13.10;;;5.43;;
20956;SDS011;10637;47.970;7.830;2024-03-22T05:07:18;12.97;;;5.90;;
20956;SDS011;10637;47.970;7.830;2024-03-22T05:12:18;13.57;;;5.07;;
20956;SDS011;10637;47.970;7.830;2024-03-22T05:17:19;12.57;;;5.87;;
20956;SDS011;10637;47.970;7.830;2024-03-22T05:22:20;15.03;;;5.77;;
20956;SDS011;10637;47.970;7.830;2024-03-22T05:27:22;12.87;;;5.30;;
20956;SDS011;10637;47.970;7.830;2024-03-22T05:32:23;13.10;;;5.87;;
20956;SDS011;10637;47.970;7.830;2024-03-22T05:37:24;12.70;;;5.73;;
20956;SDS011;10637;47.970;7.830;2024-03-22T05:42:25;14.83;;;6.23;;
20956;SDS011;10637;47.970;7.830;2024-03-22T05:47:26;14.30;;;5.83;;
20956;SDS011;10637;47.970;7.830;2024-03-22T05:52:27;15.60;;;5.40;;
20956;SDS011;10637;47.970;7.830;2024-03-22T05:57:28;15.83;;;7.80;;
20956;SDS011;10637;47.970;7.830;2024-03-22T06:02:30;16.33;;;6.80;;
20956;SDS011;10637;47.970;7.830;2024-03-22T06:07:31;16.57;;;6.40;;
20956;SDS011;10637;47.970;7.830;2024-03-22T06:12:40;13.27;;;6.27;;
20956;SDS011;10637;47.970;7.830;2024-03-22T06:17:41;15.13;;;5.90;;
20956;SDS011;10637;47.970;7.830;2024-03-22T06:22:43;14.10;;;5.97;;
20956;SDS011;10637;47.970;7.830;2024-03-22T06:27:43;11.27;;;5.10;;
20956;SDS011;10637;47.970;7.830;2024-03-22T06:32:44;17.53;;;5.97;;
20956;SDS011;10637;47.970;7.830;2024-03-22T06:37:45;13.23;;;5.53;;
20956;SDS011;10637;47.970;7.830;2024-03-22T06:42:46;12.50;;;5.37;;
20956;SDS011;10637;47.970;7.830;2024-03-22T06:47:46;13.23;;;5.30;;
20956;SDS011;10637;47.970;7.830;2024-03-22T06:52:47;17.63;;;5.80;;
20956;SDS011;10637;47.970;7.830;2024-03-22T06:57:49;11.83;;;5.07;;
20956;SDS011;10637;47.970;7.830;2024-03-22T07:02:50;14.30;;;6.17;;
20956;SDS011;10637;47.970;7.830;2024-03-22T07:07:50;14.53;;;5.20;;
20956;SDS011;10637;47.970;7.830;2024-03-22T07:12:54;16.33;;;5.90;;
20956;SDS011;10637;47.970;7.830;2024-03-22T07:17:55;14.83;;;6.47;;
20956;SDS011;10637;47.970;7.830;2024-03-22T07:22:56;13.90;;;6.67;;
20956;SDS011;10637;47.970;7.830;2024-03-22T07:27:57;18.80;;;6.87;;
20956;SDS011;10637;47.970;7.830;2024-03-22T07:32:58;13.03;;;5.63;;
20956;SDS011;10637;47.970;7.830;2024-03-22T07:37:58;17.17;;;5.90;;
20956;SDS011;10637;47.970;7.830;2024-03-22T07:42:59;13.53;;;5.67;;
20956;SDS011;10637;47.970;7.830;2024-03-22T07:48:00;11.43;;;4.80;;
20956;SDS011;10637;47.970;7.830;2024-03-22T07:53:01;12.27;;;5.03;;
20956;SDS011;10637;47.970;7.830;2024-03-22T07:58:02;14.97;;;4.57;;
20956;SDS011;10637;47.970;7.830;2024-03-22T08:03:03;11.00;;;3.90;;
20956;SDS011;10637;47.970;7.830;2024-03-22T08:08:04;10.13;;;4.27;;
20956;SDS011;10637;47.970;7.830;2024-03-22T08:13:05;9.63;;;3.50;;
20956;SDS011;10637;47.970;7.830;2024-03-22T08:18:06;8.87;;;3.50;;
20956;SDS011;10637;47.970;7.830;2024-03-22T08:23:17;11.17;;;3.80;;
20956;SDS011;10637;47.970;7.830;2024-03-22T08:28:23;9.53;;;3.40;;
20956;SDS011;10637;47.970;7.830;2024-03-22T08:33:24;10.27;;;4.10;;
20956;SDS011;10637;47.970;7.830;2024-03-22T08:38:24;10.33;;;4.10;;
20956;SDS011;10637;47.970;7.830;2024-03-22T08:43:26;12.00;;;4.33;;
20956;SDS011;10637;47.970;7.830;2024-03-22T08:48:32;11.13;;;4.00;;
20956;SDS011;10637;47.970;7.830;2024-03-22T08:53:34;12.30;;;4.50;;
20956;SDS011;10637;47.970;7.830;2024-03-22T08:58:35;11.13;;;4.47;;
20956;SDS011;10637;47.970;7.830;2024-03-22T09:03:36;10.87;;;3.80;;
20956;SDS011;10637;47.970;7.830;2024-03-22T09:08:37;10.60;;;3.70;;
20956;SDS011;10637;47.970;7.830;2024-03-22T09:13:38;9.20;;;3.93;;
20956;SDS011;10637;47.970;7.830;2024-03-22T09:18:39;10.53;;;3.50;;
20956;SDS011;10637;47.970;7.830;2024-03-22T09:23:42;12.13;;;3.27;;
20956;SDS011;10637;47.970;7.830;2024-03-22T09:28:51;10.93;;;4.03;;
20956;SDS011;10637;47.970;7.830;2024-03-22T09:33:52;13.33;;;3.57;;
20956;SDS011;10637;47.970;7.830;2024-03-22T09:38:53;12.83;;;3.70;;
20956;SDS011;10637;47.970;7.830;2024-03-22T09:43:56;10.00;;;3.73;;
20956;SDS011;10637;47.970;7.830;2024-03-22T09:48:59;9.00;;;3.93;;
20956;SDS011;10637;47.970;7.830;2024-03-22T09:54:05;11.83;;;4.87;;
20956;SDS011;10637;47.970;7.830;2024-03-22T09:59:07;11.83;;;4.70;;
20956;SDS011;10637;47.970;7.830;2024-03-22T10:04:10;9.23;;;3.57;;
20956;SDS011;10637;47.970;7.830;2024-03-22T10:09:11;11.73;;;3.40;;
20956;SDS011;10637;47.970;7.830;2024-03-22T10:14:14;9.63;;;3.80;;
20956;SDS011;10637;47.970;7.830;2024-03-22T10:19:15;13.00;;;3.70;;
20956;SDS011;10637;47.970;7.830;2024-03-22T10:24:16;9.90;;;3.40;;
20956;SDS011;10637;47.970;7.830;2024-03-22T10:29:17;10.07;;;3.83;;
20956;SDS011;10637;47.970;7.830;2024-03-22T10:34:24;9.73;;;3.57;;
20956;SDS011;10637;47.970;7.830;2024-03-22T10:39:25;12.23;;;3.57;;
20956;SDS011;10637;47.970;7.830;2024-03-22T10:44:27;10.30;;;3.67;;
20956;SDS011;10637;47.970;7.830;2024-03-22T10:49:27;13.60;;;4.77;;
20956;SDS011;10637;47.970;7.830;2024-03-22T10:54:32;9.63;;;4.20;;
20956;SDS011;10637;47.970;7.830;2024-03-22T10:59:36;16.90;;;3.80;;
20956;SDS011;10637;47.970;7.830;2024-03-22T11:04:37;10.70;;;2.87;;
20956;SDS011;10637;47.970;7.830;2024-03-22T11:09:38;9.87;;;3.03;;
20956;SDS011;10637;47.970;7.830;2024-03-22T11:14:41;9.47;;;2.83;;
20956;SDS011;10637;47.970;7.830;2024-03-22T11:19:42;8.13;;;2.87;;
20956;SDS011;10637;47.970;7.830;2024-03-22T11:24:46;8.33;;;2.50;;
20956;SDS011;10637;47.970;7.830;2024-03-22T11:29:46;8.30;;;2.13;;
20956;SDS011;10637;47.970;7.830;2024-03-22T11:34:51;8.50;;;1.90;;
20956;SDS011;10637;47.970;7.830;2024-03-22T11:39:52;5.87;;;1.57;;
20956;SDS011;10637;47.970;7.830;2024-03-22T11:44:53;8.27;;;1.83;;
20956;SDS011;10637;47.970;7.830;2024-03-22T11:49:55;7.40;;;1.50;;
20956;SDS011;10637;47.970;7.830;2024-03-22T11:54:56;6.20;;;1.57;;
20956;SDS011;10637;47.970;7.830;2024-03-22T12:00:01;5.23;;;1.43;;
20956;SDS011;10637;47.970;7.830;2024-03-22T12:05:04;4.63;;;1.17;;
20956;SDS011;10637;47.970;7.830;2024-03-22T12:10:06;7.43;;;1.90;;
20956;SDS011;10637;47.970;7.830;2024-03-22T12:15:07;6.27;;;1.50;;
20956;SDS011;10637;47.970;7.830;2024-03-22T12:20:08;5.67;;;1.23;;
20956;SDS011;10637;47.970;7.830;2024-03-22T12:25:09;4.33;;;1.10;;
20956;SDS011;10637;47.970;7.830;2024-03-22T12:30:12;5.13;;;1.00;;
20956;SDS011;10637;47.970;7.830;2024-03-22T12:35:13;4.40;;;1.10;;
20956;SDS011;10637;47.970;7.830;2024-03-22T12:40:13;4.37;;;1.17;;
20956;SDS011;10637;47.970;7.830;2024-03-22T12:45:14;3.73;;;1.00;;
20956;SDS011;10637;47.970;7.830;2024-03-22T12:50:15;5.87;;;1.30;;
20956;SDS011;10637;47.970;7.830;2024-03-22T12:55:16;5.23;;;1.17;;
20956;SDS011;10637;47.970;7.830;2024-03-22T13:00:17;4.00;;;1.00;;
20956;SDS011;10637;47.970;7.830;2024-03-22T13:05:20;8.03;;;1.53;;
20956;SDS011;10637;47.970;7.830;2024-03-22T13:10:21;5.93;;;1.00;;
20956;SDS011;10637;47.970;7.830;2024-03-22T13:15:22;4.73;;;1.00;;
20956;SDS011;10637;47.970;7.830;2024-03-22T13:20:23;4.27;;;1.07;;
20956;SDS011;10637;47.970;7.830;2024-03-22T13:25:24;5.73;;;1.17;;
20956;SDS011;10637;47.970;7.830;2024-03-22T13:30:26;3.53;;;0.90;;
20956;SDS011;10637;47.970;7.830;2024-03-22T13:35:27;4.83;;;1.10;;
20956;SDS011;10637;47.970;7.830;2024-03-22T13:40:28;6.80;;;1.63;;
20956;SDS011;10637;47.970;7.830;2024-03-22T13:45:29;7.93;;;1.30;;
20956;SDS011;10637;47.970;7.830;2024-03-22T13:50:30;6.03;;;1.53;;
20956;SDS011;10637;47.970;7.830;2024-03-22T13:55:31;8.87;;;1.70;;
20956;SDS011;10637;47.970;7.830;2024-03-22T14:00:32;8.43;;;1.37;;
20956;SDS011;10637;47.970;7.830;2024-03-22T14:05:34;6.73;;;1.33;;
20956;SDS011;10637;47.970;7.830;2024-03-22T14:10:35;4.50;;;1.17;;
20956;SDS011;10637;47.970;7.830;2024-03-22T14:15:35;4.43;;;1.07;;
20956;SDS011;10637;47.970;7.830;2024-03-22T14:20:37;6.37;;;1.10;;
20956;SDS011;10637;47.970;7.830;2024-03-22T14:25:38;4.93;;;1.23;;
20956;SDS011;10637;47.970;7.830;2024-03-22T14:30:40;7.23;;;1.20;;
20956;SDS011;10637;47.970;7.830;2024-03-22T14:35:40;5.50;;;1.43;;
20956;SDS011;10637;47.970;7.830;2024-03-22T14:40:41;7.00;;;1.63;;
20956;SDS011;10637;47.970;7.830;2024-03-22T14:45:42;5.30;;;1.33;;
20956;SDS011;10637;47.970;7.830;2024-03-22T14:50:43;6.40;;;1.50;;
20956;SDS011;10637;47.970;7.830;2024-03-22T14:55:53;7.63;;;1.60;;
20956;SDS011;10637;47.970;7.830;2024-03-22T15:00:59;4.67;;;1.30;;
20956;SDS011;10637;47.970;7.830;2024-03-22T15:06:01;7.37;;;1.40;;
20956;SDS011;10637;47.970;7.830;2024-03-22T15:11:03;6.47;;;1.50;;
20956;SDS011;10637;47.970;7.830;2024-03-22T15:16:04;6.27;;;1.30;;
20956;SDS011;10637;47.970;7.830;2024-03-22T15:21:05;6.70;;;1.40;;
20956;SDS011;10637;47.970;7.830;2024-03-22T15:26:06;5.20;;;1.30;;
20956;SDS011;10637;47.970;7.830;2024-03-22T15:31:07;6.80;;;1.40;;
20956;SDS011;10637;47.970;7.830;2024-03-22T15:36:08;8.20;;;1.67;;
20956;SDS011;10637;47.970;7.830;2024-03-22T15:41:09;7.87;;;1.60;;
20956;SDS011;10637;47.970;7.830;2024-03-22T15:46:10;5.57;;;1.30;;
20956;SDS011;10637;47.970;7.830;2024-03-22T15:51:11;7.57;;;1.43;;
20956;SDS011;10637;47.970;7.830;2024-03-22T15:56:11;6.93;;;1.60;;
20956;SDS011;10637;47.970;7.830;2024-03-22T16:01:12;7.53;;;1.60;;
20956;SDS011;10637;47.970;7.830;2024-03-22T16:06:13;7.67;;;1.63;;
20956;SDS011;10637;47.970;7.830;2024-03-22T16:11:14;8.47;;;2.07;;
20956;SDS011;10637;47.970;7.830;2024-03-22T16:16:15;7.87;;;1.47;;
20956;SDS011;10637;47.970;7.830;2024-03-22T16:21:16;9.33;;;1.90;;
20956;SDS011;10637;47.970;7.830;2024-03-22T16:26:18;7.77;;;1.80;;
20956;SDS011;10637;47.970;7.830;2024-03-22T16:31:19;6.87;;;1.63;;
20956;SDS011;10637;47.970;7.830;2024-03-22T16:36:20;7.37;;;1.50;;
20956;SDS011;10637;47.970;7.830;2024-03-22T16:41:21;8.63;;;1.60;;
20956;SDS011;10637;47.970;7.830;2024-03-22T16:46:22;8.07;;;1.60;;
20956;SDS011;10637;47.970;7.830;2024-03-22T16:51:23;5.97;;;1.43;;
20956;SDS011;10637;47.970;7.830;2024-03-22T16:56:24;7.73;;;1.63;;
20956;SDS011;10637;47.970;7.830;2024-03-22T17:01:26;10.80;;;1.70;;
20956;SDS011;10637;47.970;7.830;2024-03-22T17:06:26;7.47;;;1.80;;
20956;SDS011;10637;47.970;7.830;2024-03-22T17:11:27;9.73;;;1.63;;
20956;SDS011;10637;47.970;7.830;2024-03-22T17:16:28;8.40;;;1.70;;
20956;SDS011;10637;47.970;7.830;2024-03-22T17:21:29;8.50;;;1.90;;
20956;SDS011;10637;47.970;7.830;2024-03-22T17:26:30;9.37;;;3.00;;
20956;SDS011;10637;47.970;7.830;2024-03-22T17:31:31;12.10;;;2.90;;
20956;SDS011;10637;47.970;7.830;2024-03-22T17:36:32;10.00;;;2.70;;
20956;SDS011;10637;47.970;7.830;2024-03-22T17:41:32;11.83;;;3.10;;
20956;SDS011;10637;47.970;7.830;2024-03-22T17:46:33;14.33;;;3.53;;
20956;SDS011;10637;47.970;7.830;2024-03-22T17:51:36;11.07;;;2.90;;
20956;SDS011;10637;47.970;7.830;2024-03-22T17:56:36;8.67;;;2.93;;
20956;SDS011;10637;47.970;7.830;2024-03-22T18:01:37;9.50;;;2.90;;
20956;SDS011;10637;47.970;7.830;2024-03-22T18:06:39;10.63;;;3.00;;
20956;SDS011;10637;47.970;7.830;2024-03-22T18:11:40;11.80;;;3.73;;
20956;SDS011;10637;47.970;7.830;2024-03-22T18:16:41;9.23;;;3.27;;
20956;SDS011;10637;47.970;7.830;2024-03-22T18:21:41;12.27;;;4.40;;
20956;SDS011;10637;47.970;7.830;2024-03-22T18:26:42;12.27;;;4.90;;
20956;SDS011;10637;47.970;7.830;2024-03-22T18:31:43;9.93;;;3.70;;
20956;SDS011;10637;47.970;7.830;2024-03-22T18:36:44;12.13;;;3.13;;
20956;SDS011;10637;47.970;7.830;2024-03-22T18:41:45;9.77;;;3.13;;
20956;SDS011;10637;47.970;7.830;2024-03-22T18:46:45;11.93;;;3.40;;
20956;SDS011;10637;47.970;7.830;2024-03-22T18:51:47;10.63;;;3.63;;
20956;SDS011;10637;47.970;7.830;2024-03-22T18:56:48;10.47;;;4.00;;
20956;SDS011;10637;47.970;7.830;2024-03-22T19:01:49;9.73;;;3.60;;
20956;SDS011;10637;47.970;7.830;2024-03-22T19:06:50;10.20;;;3.67;;
20956;SDS011;10637;47.970;7.830;2024-03-22T19:11:51;10.03;;;2.83;;
20956;SDS011;10637;47.970;7.830;2024-03-22T19:16:51;9.43;;;3.30;;
20956;SDS011;10637;47.970;7.830;2024-03-22T19:21:53;9.27;;;3.10;;
20956;SDS011;10637;47.970;7.830;2024-03-22T19:26:53;9.23;;;2.60;;
20956;SDS011;10637;47.970;7.830;2024-03-22T19:31:54;7.90;;;2.47;;
20956;SDS011;10637;47.970;7.830;2024-03-22T19:36:55;8.80;;;3.10;;
20956;SDS011;10637;47.970;7.830;2024-03-22T19:41:56;9.73;;;3.53;;
20956;SDS011;10637;47.970;7.830;2024-03-22T19:46:57;11.90;;;3.00;;
20956;SDS011;10637;47.970;7.830;2024-03-22T19:51:58;8.03;;;2.40;;
20956;SDS011;10637;47.970;7.830;2024-03-22T19:57:01;9.23;;;2.40;;
20956;SDS011;10637;47.970;7.830;2024-03-22T20:02:02;9.70;;;3.07;;
20956;SDS011;10637;47.970;7.830;2024-03-22T20:07:05;7.63;;;2.53;;
20956;SDS011;10637;47.970;7.830;2024-03-22T20:12:06;8.93;;;2.43;;
20956;SDS011;10637;47.970;7.830;2024-03-22T20:17:08;10.90;;;2.60;;
20956;SDS011;10637;47.970;7.830;2024-03-22T20:22:09;9.07;;;2.37;;
20956;SDS011;10637;47.970;7.830;2024-03-22T20:27:09;7.40;;;2.20;;
20956;SDS011;10637;47.970;7.830;2024-03-22T20:32:10;7.30;;;2.20;;
20956;SDS011;10637;47.970;7.830;2024-03-22T20:37:11;9.10;;;2.77;;
